sensor_id;sensor_type;location;lat;lon;timestamp;pressure;altitude;pressure_sealevel;temperature;humidity
28306;BME280;7516;43.570;1.448;2022-11-03T00:01:10;99784.63;;;12.56;95.23
28306;BME280;7516;43.570;1.448;2022-11-03T00:03:37;99783.97;;;12.54;94.11
28306;BME280;7516;43.570;1.448;2022-11-03T00:06:05;99781.78;;;12.58;95.62
28306;BME280;7516;43.570;1.448;2022-11-03T00:08:34;99778.97;;;12.59;94.33
28306;BME280;7516;43.570;1.448;2022-11-03T00:11:10;99776.97;;;12.61;93.84
28306;BME280;7516;43.570;1.448;2022-11-03T00:13:41;99774.63;;;12.66;94.59
28306;BME280;7516;43.570;1.448;2022-11-03T00:16:10;99766.94;;;12.65;93.41
28306;BME280;7516;43.570;1.448;2022-11-03T00:18:38;99763.31;;;12.66;92.02
28306;BME280;7516;43.570;1.448;2022-11-03T00:21:07;99764.13;;;12.66;91.25
28306;BME280;7516;43.570;1.448;2022-11-03T00:23:36;99758.75;;;12.74;91.18
28306;BME280;7516;43.570;1.448;2022-11-03T00:26:06;99742.75;;;12.76;90.52
28306;BME280;7516;43.570;1.448;2022-11-03T00:28:35;99738.31;;;12.76;89.63
28306;BME280;7516;43.570;1.448;2022-11-03T00:31:08;99737.16;;;12.79;89.31
28306;BME280;7516;43.570;1.448;2022-11-03T00:33:36;99721.81;;;12.82;88.84
28306;BME280;7516;43.570;1.448;2022-11-03T00:36:04;99714.53;;;12.85;88.22
28306;BME280;7516;43.570;1.448;2022-11-03T00:38:32;99711.91;;;12.85;87.92
28306;BME280;7516;43.570;1.448;2022-11-03T00:41:02;99712.19;;;12.90;88.34
28306;BME280;7516;43.570;1.448;2022-11-03T00:43:31;99706.28;;;12.88;88.61
28306;BME280;7516;43.570;1.448;2022-11-03T00:45:59;99707.47;;;12.85;87.66
28306;BME280;7516;43.570;1.448;2022-11-03T00:48:28;99690.25;;;12.82;88.39
28306;BME280;7516;43.570;1.448;2022-11-03T00:51:03;99695.53;;;12.82;88.46
28306;BME280;7516;43.570;1.448;2022-11-03T00:53:32;99693.50;;;12.85;88.93
28306;BME280;7516;43.570;1.448;2022-11-03T00:56:01;99701.78;;;12.81;87.16
28306;BME280;7516;43.570;1.448;2022-11-03T00:58:28;99703.53;;;12.74;88.57
28306;BME280;7516;43.570;1.448;2022-11-03T01:01:05;99693.00;;;12.74;87.92
28306;BME280;7516;43.570;1.448;2022-11-03T01:03:36;99685.94;;;12.75;88.79
28306;BME280;7516;43.570;1.448;2022-11-03T01:06:05;99676.66;;;12.79;88.24
28306;BME280;7516;43.570;1.448;2022-11-03T01:08:51;99677.03;;;12.76;88.35
28306;BME280;7516;43.570;1.448;2022-11-03T01:11:20;99672.78;;;12.75;86.82
28306;BME280;7516;43.570;1.448;2022-11-03T01:14:06;99668.31;;;12.75;88.61
28306;BME280;7516;43.570;1.448;2022-11-03T01:16:34;99675.59;;;12.73;87.38
28306;BME280;7516;43.570;1.448;2022-11-03T01:19:04;99673.97;;;12.72;88.90
28306;BME280;7516;43.570;1.448;2022-11-03T01:21:32;99674.03;;;12.79;87.78
28306;BME280;7516;43.570;1.448;2022-11-03T01:24:00;99670.94;;;12.75;88.63
28306;BME280;7516;43.570;1.448;2022-11-03T01:26:28;99665.09;;;12.73;89.28
28306;BME280;7516;43.570;1.448;2022-11-03T01:28:57;99660.44;;;12.75;89.73
28306;BME280;7516;43.570;1.448;2022-11-03T01:31:25;99657.06;;;12.81;89.36
28306;BME280;7516;43.570;1.448;2022-11-03T01:33:54;99663.34;;;12.80;90.69
28306;BME280;7516;43.570;1.448;2022-11-03T01:36:24;99660.34;;;12.84;90.26
28306;BME280;7516;43.570;1.448;2022-11-03T01:38:52;99655.06;;;12.84;90.43
28306;BME280;7516;43.570;1.448;2022-11-03T01:41:22;99651.81;;;12.81;91.24
28306;BME280;7516;43.570;1.448;2022-11-03T01:44:18;99644.78;;;12.89;92.21
28306;BME280;7516;43.570;1.448;2022-11-03T01:46:54;99636.44;;;12.85;90.73
28306;BME280;7516;43.570;1.448;2022-11-03T01:49:26;99635.28;;;12.88;91.38
28306;BME280;7516;43.570;1.448;2022-11-03T01:52:04;99623.81;;;12.95;93.49
28306;BME280;7516;43.570;1.448;2022-11-03T01:54:36;99617.13;;;12.93;92.80
28306;BME280;7516;43.570;1.448;2022-11-03T01:57:07;99622.81;;;12.96;94.61
28306;BME280;7516;43.570;1.448;2022-11-03T01:59:36;99611.47;;;12.96;94.69
28306;BME280;7516;43.570;1.448;2022-11-03T02:02:04;99606.19;;;12.96;93.52
28306;BME280;7516;43.570;1.448;2022-11-03T02:04:32;99593.44;;;12.93;95.15
28306;BME280;7516;43.570;1.448;2022-11-03T02:07:09;99586.84;;;13.03;96.06
28306;BME280;7516;43.570;1.448;2022-11-03T02:09:38;99590.09;;;13.05;95.95
28306;BME280;7516;43.570;1.448;2022-11-03T02:12:07;99575.91;;;13.00;97.24
28306;BME280;7516;43.570;1.448;2022-11-03T02:14:37;99571.50;;;13.07;96.01
28306;BME280;7516;43.570;1.448;2022-11-03T02:17:08;99567.81;;;13.01;96.65
28306;BME280;7516;43.570;1.448;2022-11-03T02:19:40;99551.44;;;13.06;97.96
28306;BME280;7516;43.570;1.448;2022-11-03T02:25:43;99537.91;;;13.09;98.79
28306;BME280;7516;43.570;1.448;2022-11-03T02:28:14;99537.91;;;13.09;99.79
28306;BME280;7516;43.570;1.448;2022-11-03T02:30:45;99533.47;;;13.09;100.00
28306;BME280;7516;43.570;1.448;2022-11-03T02:33:29;99529.84;;;13.10;100.00
28306;BME280;7516;43.570;1.448;2022-11-03T02:36:02;99529.84;;;13.10;99.73
28306;BME280;7516;43.570;1.448;2022-11-03T02:38:33;99524.34;;;13.12;100.00
28306;BME280;7516;43.570;1.448;2022-11-03T02:41:06;99528.00;;;13.11;100.00
28306;BME280;7516;43.570;1.448;2022-11-03T02:43:34;99523.63;;;13.18;100.00
28306;BME280;7516;43.570;1.448;2022-11-03T02:46:04;99520.00;;;13.19;100.00
28306;BME280;7516;43.570;1.448;2022-11-03T02:48:32;99526.28;;;13.18;100.00
28306;BME280;7516;43.570;1.448;2022-11-03T02:51:00;99519.03;;;13.27;100.00
28306;BME280;7516;43.570;1.448;2022-11-03T02:53:30;99518.59;;;13.23;100.00
28306;BME280;7516;43.570;1.448;2022-11-03T02:56:04;99506.06;;;13.25;100.00
28306;BME280;7516;43.570;1.448;2022-11-03T02:58:38;99497.19;;;13.33;100.00
28306;BME280;7516;43.570;1.448;2022-11-03T03:01:11;99498.00;;;13.33;100.00
28306;BME280;7516;43.570;1.448;2022-11-03T03:03:46;99494.56;;;13.33;100.00
28306;BME280;7516;43.570;1.448;2022-11-03T03:06:18;99492.38;;;13.36;100.00
28306;BME280;7516;43.570;1.448;2022-11-03T03:08:50;99490.94;;;13.40;100.00
28306;BME280;7516;43.570;1.448;2022-11-03T03:11:21;99487.31;;;13.41;100.00
28306;BME280;7516;43.570;1.448;2022-11-03T03:14:08;99480.41;;;13.40;100.00
28306;BME280;7516;43.570;1.448;2022-11-03T03:16:46;99472.53;;;13.47;100.00
28306;BME280;7516;43.570;1.448;2022-11-03T03:19:22;99474.78;;;13.50;100.00
28306;BME280;7516;43.570;1.448;2022-11-03T03:21:53;99465.28;;;13.49;100.00
28306;BME280;7516;43.570;1.448;2022-11-03T03:24:27;99453.09;;;13.41;100.00
28306;BME280;7516;43.570;1.448;2022-11-03T03:27:00;99454.75;;;13.49;100.00
28306;BME280;7516;43.570;1.448;2022-11-03T03:29:33;99448.84;;;13.47;100.00
28306;BME280;7516;43.570;1.448;2022-11-03T03:32:06;99450.47;;;13.48;100.00
28306;BME280;7516;43.570;1.448;2022-11-03T03:34:37;99451.53;;;13.53;100.00
28306;BME280;7516;43.570;1.448;2022-11-03T03:37:07;99446.25;;;13.53;100.00
28306;BME280;7516;43.570;1.448;2022-11-03T03:39:38;99441.00;;;13.53;100.00
28306;BME280;7516;43.570;1.448;2022-11-03T03:42:10;99450.31;;;13.56;100.00
28306;BME280;7516;43.570;1.448;2022-11-03T03:44:41;99448.09;;;13.60;100.00
28306;BME280;7516;43.570;1.448;2022-11-03T03:47:13;99449.09;;;13.59;100.00
28306;BME280;7516;43.570;1.448;2022-11-03T03:49:44;99444.47;;;13.67;100.00
28306;BME280;7516;43.570;1.448;2022-11-03T03:52:11;99437.38;;;13.68;100.00
28306;BME280;7516;43.570;1.448;2022-11-03T03:54:39;99440.44;;;13.71;100.00
28306;BME280;7516;43.570;1.448;2022-11-03T03:57:11;99445.91;;;13.70;100.00
28306;BME280;7516;43.570;1.448;2022-11-03T03:59:40;99433.34;;;13.72;100.00
28306;BME280;7516;43.570;1.448;2022-11-03T04:02:08;99422.81;;;13.72;100.00
28306;BME280;7516;43.570;1.448;2022-11-03T04:04:36;99421.78;;;13.73;100.00
28306;BME280;7516;43.570;1.448;2022-11-03T04:07:05;99435.56;;;13.75;100.00
28306;BME280;7516;43.570;1.448;2022-11-03T04:09:50;99431.75;;;13.77;100.00
28306;BME280;7516;43.570;1.448;2022-11-03T04:12:19;99425.28;;;13.80;100.00
28306;BME280;7516;43.570;1.448;2022-11-03T04:15:04;99433.19;;;13.86;100.00
28306;BME280;7516;43.570;1.448;2022-11-03T04:17:49;99429.09;;;13.84;100.00
28306;BME280;7516;43.570;1.448;2022-11-03T04:20:34;99425.66;;;13.83;100.00
28306;BME280;7516;43.570;1.448;2022-11-03T04:23:19;99429.34;;;13.89;100.00
28306;BME280;7516;43.570;1.448;2022-11-03T04:25:49;99411.47;;;13.91;100.00
28306;BME280;7516;43.570;1.448;2022-11-03T04:28:19;99423.66;;;13.92;100.00
28306;BME280;7516;43.570;1.448;2022-11-03T04:30:47;99414.75;;;13.93;100.00
28306;BME280;7516;43.570;1.448;2022-11-03T04:33:16;99406.63;;;13.94;100.00
28306;BME280;7516;43.570;1.448;2022-11-03T04:35:44;99405.81;;;13.94;100.00
28306;BME280;7516;43.570;1.448;2022-11-03T04:38:22;99398.94;;;13.93;100.00
28306;BME280;7516;43.570;1.448;2022-11-03T04:40:53;99396.09;;;13.94;100.00
28306;BME280;7516;43.570;1.448;2022-11-03T04:43:30;99402.56;;;13.92;100.00
28306;BME280;7516;43.570;1.448;2022-11-03T04:45:58;99394.91;;;13.97;100.00
28306;BME280;7516;43.570;1.448;2022-11-03T04:48:28;99394.66;;;13.99;100.00
28306;BME280;7516;43.570;1.448;2022-11-03T04:50:58;99398.53;;;13.96;100.00
28306;BME280;7516;43.570;1.448;2022-11-03T04:53:29;99395.09;;;13.96;100.00
28306;BME280;7516;43.570;1.448;2022-11-03T04:55:59;99396.91;;;13.95;100.00
28306;BME280;7516;43.570;1.448;2022-11-03T04:58:33;99393.47;;;14.01;100.00
28306;BME280;7516;43.570;1.448;2022-11-03T05:01:02;99379.28;;;14.02;100.00
28306;BME280;7516;43.570;1.448;2022-11-03T05:03:33;99388.63;;;13.98;100.00
28306;BME280;7516;43.570;1.448;2022-11-03T05:06:07;99375.03;;;13.94;100.00
28306;BME280;7516;43.570;1.448;2022-11-03T05:08:36;99367.53;;;13.98;100.00
28306;BME280;7516;43.570;1.448;2022-11-03T05:11:11;99374.22;;;13.94;100.00
28306;BME280;7516;43.570;1.448;2022-11-03T05:13:42;99378.28;;;13.97;100.00
28306;BME280;7516;43.570;1.448;2022-11-03T05:16:09;99381.09;;;14.02;100.00
28306;BME280;7516;43.570;1.448;2022-11-03T05:18:39;99375.44;;;13.98;100.00
28306;BME280;7516;43.570;1.448;2022-11-03T05:21:11;99378.66;;;14.00;100.00
28306;BME280;7516;43.570;1.448;2022-11-03T05:23:41;99371.19;;;14.04;100.00
28306;BME280;7516;43.570;1.448;2022-11-03T05:26:13;99368.75;;;14.02;100.00
28306;BME280;7516;43.570;1.448;2022-11-03T05:28:45;99358.38;;;14.07;100.00
28306;BME280;7516;43.570;1.448;2022-11-03T05:31:23;99355.16;;;14.12;100.00
28306;BME280;7516;43.570;1.448;2022-11-03T05:33:55;99345.84;;;14.16;100.00
28306;BME280;7516;43.570;1.448;2022-11-03T05:36:25;99355.97;;;14.19;100.00
28306;BME280;7516;43.570;1.448;2022-11-03T05:39:00;99346.22;;;14.19;100.00
28306;BME280;7516;43.570;1.448;2022-11-03T05:41:38;99346.44;;;14.24;100.00
28306;BME280;7516;43.570;1.448;2022-11-03T05:44:20;99357.56;;;14.26;100.00
28306;BME280;7516;43.570;1.448;2022-11-03T05:46:51;99353.94;;;14.27;100.00
28306;BME280;7516;43.570;1.448;2022-11-03T05:49:19;99350.88;;;14.30;100.00
28306;BME280;7516;43.570;1.448;2022-11-03T05:51:46;99358.16;;;14.35;100.00
28306;BME280;7516;43.570;1.448;2022-11-03T05:54:19;99350.25;;;14.35;100.00
28306;BME280;7516;43.570;1.448;2022-11-03T05:56:49;99353.91;;;14.34;100.00
28306;BME280;7516;43.570;1.448;2022-11-03T05:59:22;99350.06;;;14.37;100.00
28306;BME280;7516;43.570;1.448;2022-11-03T06:01:51;99353.34;;;14.39;100.00
28306;BME280;7516;43.570;1.448;2022-11-03T06:04:23;99351.13;;;14.42;100.00
28306;BME280;7516;43.570;1.448;2022-11-03T06:06:54;99352.50;;;14.45;100.00
28306;BME280;7516;43.570;1.448;2022-11-03T06:09:23;99336.88;;;14.43;100.00
28306;BME280;7516;43.570;1.448;2022-11-03T06:11:54;99342.16;;;14.43;100.00
28306;BME280;7516;43.570;1.448;2022-11-03T06:14:25;99343.38;;;14.47;100.00
28306;BME280;7516;43.570;1.448;2022-11-03T06:16:56;99345.41;;;14.45;100.00
28306;BME280;7516;43.570;1.448;2022-11-03T06:19:27;99357.38;;;14.48;100.00
28306;BME280;7516;43.570;1.448;2022-11-03T06:21:58;99349.47;;;14.48;100.00
28306;BME280;7516;43.570;1.448;2022-11-03T06:24:31;99352.09;;;14.48;100.00
28306;BME280;7516;43.570;1.448;2022-11-03T06:26:59;99331.63;;;14.50;100.00
28306;BME280;7516;43.570;1.448;2022-11-03T06:29:31;99342.75;;;14.52;100.00
28306;BME280;7516;43.570;1.448;2022-11-03T06:32:00;99326.94;;;14.52;100.00
28306;BME280;7516;43.570;1.448;2022-11-03T06:34:35;99335.44;;;14.54;100.00
28306;BME280;7516;43.570;1.448;2022-11-03T06:37:15;99332.81;;;14.54;100.00
28306;BME280;7516;43.570;1.448;2022-11-03T06:39:45;99337.88;;;14.55;100.00
28306;BME280;7516;43.570;1.448;2022-11-03T06:42:15;99335.25;;;14.55;100.00
28306;BME280;7516;43.570;1.448;2022-11-03T06:44:46;99339.72;;;14.55;100.00
28306;BME280;7516;43.570;1.448;2022-11-03T06:47:20;99325.91;;;14.59;100.00
28306;BME280;7516;43.570;1.448;2022-11-03T06:49:50;99332.59;;;14.62;100.00
28306;BME280;7516;43.570;1.448;2022-11-03T06:52:24;99326.28;;;14.63;100.00
28306;BME280;7516;43.570;1.448;2022-11-03T06:54:58;99322.66;;;14.64;100.00
28306;BME280;7516;43.570;1.448;2022-11-03T06:57:26;99321.84;;;14.63;100.00
28306;BME280;7516;43.570;1.448;2022-11-03T06:59:58;99315.34;;;14.66;100.00
28306;BME280;7516;43.570;1.448;2022-11-03T07:02:48;99313.50;;;14.73;100.00
28306;BME280;7516;43.570;1.448;2022-11-03T07:05:21;99303.13;;;14.72;100.00
28306;BME280;7516;43.570;1.448;2022-11-03T07:07:50;99303.53;;;14.75;100.00
28306;BME280;7516;43.570;1.448;2022-11-03T07:10:18;99296.25;;;14.77;100.00
28306;BME280;7516;43.570;1.448;2022-11-03T07:12:46;99305.75;;;14.78;100.00
28306;BME280;7516;43.570;1.448;2022-11-03T07:15:23;99305.34;;;14.81;100.00
28306;BME280;7516;43.570;1.448;2022-11-03T07:17:53;99317.91;;;14.79;100.00
28306;BME280;7516;43.570;1.448;2022-11-03T07:20:21;99306.34;;;14.80;100.00
28306;BME280;7516;43.570;1.448;2022-11-03T07:22:50;99313.44;;;14.86;100.00
28306;BME280;7516;43.570;1.448;2022-11-03T07:25:20;99309.56;;;14.89;100.00
28306;BME280;7516;43.570;1.448;2022-11-03T07:27:50;99315.44;;;14.91;100.00
28306;BME280;7516;43.570;1.448;2022-11-03T07:30:21;99312.81;;;14.91;100.00
28306;BME280;7516;43.570;1.448;2022-11-03T07:32:51;99319.50;;;14.93;100.00
28306;BME280;7516;43.570;1.448;2022-11-03T07:35:28;99317.63;;;15.00;100.00
28306;BME280;7516;43.570;1.448;2022-11-03T07:37:56;99300.78;;;15.01;100.00
28306;BME280;7516;43.570;1.448;2022-11-03T07:40:27;99299.31;;;15.05;100.00
28306;BME280;7516;43.570;1.448;2022-11-03T07:42:59;99292.88;;;15.01;100.00
28306;BME280;7516;43.570;1.448;2022-11-03T07:45:36;99292.88;;;15.01;100.00
28306;BME280;7516;43.570;1.448;2022-11-03T07:48:18;99286.94;;;15.06;100.00
28306;BME280;7516;43.570;1.448;2022-11-03T07:50:48;99288.78;;;15.05;100.00
28306;BME280;7516;43.570;1.448;2022-11-03T07:53:24;99288.34;;;15.09;100.00
28306;BME280;7516;43.570;1.448;2022-11-03T07:55:55;99284.28;;;15.13;100.00
28306;BME280;7516;43.570;1.448;2022-11-03T07:58:34;99288.31;;;15.15;100.00
28306;BME280;7516;43.570;1.448;2022-11-03T08:01:15;99281.81;;;15.18;100.00
28306;BME280;7516;43.570;1.448;2022-11-03T08:03:47;99283.00;;;15.22;100.00
28306;BME280;7516;43.570;1.448;2022-11-03T08:06:14;99290.34;;;15.20;100.00
28306;BME280;7516;43.570;1.448;2022-11-03T08:08:42;99290.28;;;15.26;100.00
28306;BME280;7516;43.570;1.448;2022-11-03T08:11:09;99281.94;;;15.29;100.00
28306;BME280;7516;43.570;1.448;2022-11-03T08:13:37;99295.53;;;15.33;100.00
28306;BME280;7516;43.570;1.448;2022-11-03T08:16:06;99303.66;;;15.31;100.00
28306;BME280;7516;43.570;1.448;2022-11-03T08:18:34;99312.97;;;15.34;100.00
28306;BME280;7516;43.570;1.448;2022-11-03T08:21:02;99311.75;;;15.36;100.00
28306;BME280;7516;43.570;1.448;2022-11-03T08:23:29;99301.56;;;15.40;100.00
28306;BME280;7516;43.570;1.448;2022-11-03T08:25:57;99295.88;;;15.43;100.00
28306;BME280;7516;43.570;1.448;2022-11-03T08:28:24;99292.81;;;15.46;100.00
28306;BME280;7516;43.570;1.448;2022-11-03T08:30:52;99309.00;;;15.50;100.00
28306;BME280;7516;43.570;1.448;2022-11-03T08:33:21;99297.22;;;15.52;100.00
28306;BME280;7516;43.570;1.448;2022-11-03T08:35:48;99303.94;;;15.55;100.00
28306;BME280;7516;43.570;1.448;2022-11-03T08:38:16;99297.41;;;15.57;100.00
28306;BME280;7516;43.570;1.448;2022-11-03T08:40:43;99284.38;;;15.62;100.00
28306;BME280;7516;43.570;1.448;2022-11-03T08:43:11;99275.59;;;15.68;100.00
28306;BME280;7516;43.570;1.448;2022-11-03T08:45:38;99270.69;;;15.72;100.00
28306;BME280;7516;43.570;1.448;2022-11-03T08:48:06;99261.28;;;15.76;100.00
28306;BME280;7516;43.570;1.448;2022-11-03T08:50:35;99254.56;;;15.80;100.00
28306;BME280;7516;43.570;1.448;2022-11-03T08:53:03;99257.56;;;15.84;100.00
28306;BME280;7516;43.570;1.448;2022-11-03T08:55:30;99249.22;;;15.87;100.00
28306;BME280;7516;43.570;1.448;2022-11-03T08:57:58;99238.81;;;15.92;100.00
28306;BME280;7516;43.570;1.448;2022-11-03T09:00:25;99232.66;;;15.98;100.00
28306;BME280;7516;43.570;1.448;2022-11-03T09:02:53;99226.91;;;16.01;100.00
28306;BME280;7516;43.570;1.448;2022-11-03T09:05:21;99214.06;;;16.04;100.00
28306;BME280;7516;43.570;1.448;2022-11-03T09:07:50;99200.63;;;16.06;100.00
28306;BME280;7516;43.570;1.448;2022-11-03T09:10:18;99209.16;;;16.08;100.00
28306;BME280;7516;43.570;1.448;2022-11-03T09:12:45;99207.09;;;16.10;100.00
28306;BME280;7516;43.570;1.448;2022-11-03T09:15:13;99221.34;;;16.09;100.00
28306;BME280;7516;43.570;1.448;2022-11-03T09:17:40;99248.59;;;16.09;100.00
28306;BME280;7516;43.570;1.448;2022-11-03T09:20:08;99275.81;;;16.10;100.00
28306;BME280;7516;43.570;1.448;2022-11-03T09:22:36;99281.47;;;16.13;100.00
28306;BME280;7516;43.570;1.448;2022-11-03T09:25:06;99276.59;;;16.17;100.00
28306;BME280;7516;43.570;1.448;2022-11-03T09:27:34;99272.03;;;16.24;100.00
28306;BME280;7516;43.570;1.448;2022-11-03T09:30:01;99269.09;;;16.32;100.00
28306;BME280;7516;43.570;1.448;2022-11-03T09:32:29;99281.22;;;16.40;100.00
28306;BME280;7516;43.570;1.448;2022-11-03T09:34:56;99282.75;;;16.47;100.00
28306;BME280;7516;43.570;1.448;2022-11-03T09:37:24;99271.88;;;16.55;100.00
28306;BME280;7516;43.570;1.448;2022-11-03T09:39:51;99252.88;;;16.65;100.00
28306;BME280;7516;43.570;1.448;2022-11-03T09:42:21;99250.28;;;16.77;100.00
28306;BME280;7516;43.570;1.448;2022-11-03T09:44:48;99236.72;;;16.85;100.00
28306;BME280;7516;43.570;1.448;2022-11-03T09:47:22;99239.97;;;16.87;100.00
28306;BME280;7516;43.570;1.448;2022-11-03T09:49:50;99250.56;;;16.87;100.00
28306;BME280;7516;43.570;1.448;2022-11-03T09:52:21;99259.97;;;16.83;100.00
28306;BME280;7516;43.570;1.448;2022-11-03T09:54:51;99265.25;;;16.83;100.00
28306;BME280;7516;43.570;1.448;2022-11-03T09:57:22;99262.59;;;16.83;100.00
28306;BME280;7516;43.570;1.448;2022-11-03T09:59:50;99256.28;;;16.84;100.00
28306;BME280;7516;43.570;1.448;2022-11-03T10:02:23;99256.28;;;16.84;100.00
28306;BME280;7516;43.570;1.448;2022-11-03T10:04:52;99255.47;;;16.83;100.00
28306;BME280;7516;43.570;1.448;2022-11-03T10:07:20;99252.41;;;16.86;100.00
28306;BME280;7516;43.570;1.448;2022-11-03T10:09:49;99251.94;;;16.89;100.00
28306;BME280;7516;43.570;1.448;2022-11-03T10:12:18;99248.03;;;16.92;100.00
28306;BME280;7516;43.570;1.448;2022-11-03T10:14:47;99246.56;;;16.96;100.00
28306;BME280;7516;43.570;1.448;2022-11-03T10:17:17;99253.22;;;16.99;100.00
28306;BME280;7516;43.570;1.448;2022-11-03T10:19:48;99254.41;;;17.03;100.00
28306;BME280;7516;43.570;1.448;2022-11-03T10:22:18;99245.78;;;17.07;100.00
28306;BME280;7516;43.570;1.448;2022-11-03T10:24:46;99256.97;;;17.09;100.00
28306;BME280;7516;43.570;1.448;2022-11-03T10:27:21;99267.56;;;17.09;100.00
28306;BME280;7516;43.570;1.448;2022-11-03T10:30:06;99273.31;;;17.06;100.00
28306;BME280;7516;43.570;1.448;2022-11-03T10:32:34;99273.53;;;17.05;100.00
28306;BME280;7516;43.570;1.448;2022-11-03T10:35:02;99276.41;;;17.03;100.00
28306;BME280;7516;43.570;1.448;2022-11-03T10:37:49;99279.63;;;17.05;100.00
28306;BME280;7516;43.570;1.448;2022-11-03T10:40:36;99278.59;;;17.06;100.00
28306;BME280;7516;43.570;1.448;2022-11-03T10:43:03;99289.75;;;17.08;100.00
28306;BME280;7516;43.570;1.448;2022-11-03T10:45:32;99276.31;;;17.10;100.00
28306;BME280;7516;43.570;1.448;2022-11-03T10:48:01;99270.91;;;17.16;100.00
28306;BME280;7516;43.570;1.448;2022-11-03T10:50:31;99263.44;;;17.25;100.00
28306;BME280;7516;43.570;1.448;2022-11-03T10:52:59;99269.34;;;17.27;100.00
28306;BME280;7516;43.570;1.448;2022-11-03T10:55:28;99274.41;;;17.28;100.00
28306;BME280;7516;43.570;1.448;2022-11-03T10:57:56;99260.72;;;17.32;100.00
28306;BME280;7516;43.570;1.448;2022-11-03T11:00:24;99249.00;;;17.39;100.00
28306;BME280;7516;43.570;1.448;2022-11-03T11:02:58;99242.41;;;17.42;100.00
28306;BME280;7516;43.570;1.448;2022-11-03T11:05:26;99244.03;;;17.43;100.00
28306;BME280;7516;43.570;1.448;2022-11-03T11:07:54;99230.31;;;17.46;100.00
28306;BME280;7516;43.570;1.448;2022-11-03T11:10:24;99226.66;;;17.47;100.00
28306;BME280;7516;43.570;1.448;2022-11-03T11:13:12;99229.19;;;17.53;100.00
28306;BME280;7516;43.570;1.448;2022-11-03T11:15:51;99214.09;;;17.54;100.00
28306;BME280;7516;43.570;1.448;2022-11-03T11:19:00;99234.25;;;17.55;100.00
28306;BME280;7516;43.570;1.448;2022-11-03T11:21:57;99231.50;;;17.50;100.00
28306;BME280;7516;43.570;1.448;2022-11-03T11:24:57;99208.09;;;17.47;100.00
28306;BME280;7516;43.570;1.448;2022-11-03T11:27:54;99194.72;;;17.42;100.00
28306;BME280;7516;43.570;1.448;2022-11-03T11:33:33;99187.84;;;17.41;100.00
28306;BME280;7516;43.570;1.448;2022-11-03T11:39:00;99172.63;;;17.48;100.00
28306;BME280;7516;43.570;1.448;2022-11-03T11:42:09;99173.75;;;17.52;100.00
28306;BME280;7516;43.570;1.448;2022-11-03T11:45:01;99168.81;;;17.55;100.00
28306;BME280;7516;43.570;1.448;2022-11-03T11:47:36;99173.75;;;17.52;100.00
28306;BME280;7516;43.570;1.448;2022-11-03T11:50:28;99175.06;;;17.49;100.00
28306;BME280;7516;43.570;1.448;2022-11-03T11:55:51;99178.25;;;17.51;100.00
28306;BME280;7516;43.570;1.448;2022-11-03T11:58:23;99173.53;;;17.53;100.00
28306;BME280;7516;43.570;1.448;2022-11-03T12:00:57;99170.66;;;17.55;100.00
28306;BME280;7516;43.570;1.448;2022-11-03T12:03:33;99168.38;;;17.58;100.00
28306;BME280;7516;43.570;1.448;2022-11-03T12:06:02;99187.06;;;17.63;100.00
28306;BME280;7516;43.570;1.448;2022-11-03T12:08:30;99176.47;;;17.63;100.00
28306;BME280;7516;43.570;1.448;2022-11-03T12:11:01;99174.72;;;17.69;100.00
28306;BME280;7516;43.570;1.448;2022-11-03T12:13:40;99168.97;;;17.72;100.00
28306;BME280;7516;43.570;1.448;2022-11-03T12:16:09;99177.00;;;17.77;100.00
28306;BME280;7516;43.570;1.448;2022-11-03T12:18:38;99162.28;;;17.81;100.00
28306;BME280;7516;43.570;1.448;2022-11-03T12:21:07;99153.97;;;17.89;100.00
28306;BME280;7516;43.570;1.448;2022-11-03T12:23:38;99156.38;;;18.02;100.00
28306;BME280;7516;43.570;1.448;2022-11-03T12:26:16;99148.59;;;18.13;100.00
28306;BME280;7516;43.570;1.448;2022-11-03T12:28:44;99139.47;;;18.20;100.00
28306;BME280;7516;43.570;1.448;2022-11-03T12:31:11;99143.03;;;18.26;99.75
28306;BME280;7516;43.570;1.448;2022-11-03T12:33:39;99144.97;;;18.30;99.88
28306;BME280;7516;43.570;1.448;2022-11-03T12:36:07;99149.34;;;18.36;99.28
28306;BME280;7516;43.570;1.448;2022-11-03T12:38:35;99146.09;;;18.46;99.96
28306;BME280;7516;43.570;1.448;2022-11-03T12:41:03;99136.94;;;18.54;100.00
28306;BME280;7516;43.570;1.448;2022-11-03T12:43:46;99128.03;;;18.60;99.94
28306;BME280;7516;43.570;1.448;2022-11-03T12:46:14;99126.84;;;18.67;99.63
28306;BME280;7516;43.570;1.448;2022-11-03T12:48:42;99112.13;;;18.76;99.64
28306;BME280;7516;43.570;1.448;2022-11-03T12:51:14;99109.47;;;18.76;97.37
28306;BME280;7516;43.570;1.448;2022-11-03T12:53:42;99110.38;;;18.82;98.24
28306;BME280;7516;43.570;1.448;2022-11-03T12:56:10;99106.19;;;18.86;97.92
28306;BME280;7516;43.570;1.448;2022-11-03T12:58:38;99098.47;;;18.85;95.19
28306;BME280;7516;43.570;1.448;2022-11-03T13:01:08;99104.91;;;18.89;97.60
28306;BME280;7516;43.570;1.448;2022-11-03T13:03:35;99101.22;;;18.90;97.05
28306;BME280;7516;43.570;1.448;2022-11-03T13:06:04;99090.66;;;18.95;97.04
28306;BME280;7516;43.570;1.448;2022-11-03T13:08:35;99094.19;;;19.00;96.92
28306;BME280;7516;43.570;1.448;2022-11-03T13:11:03;99093.38;;;19.00;95.13
28306;BME280;7516;43.570;1.448;2022-11-03T13:13:50;99084.31;;;18.96;94.91
28306;BME280;7516;43.570;1.448;2022-11-03T13:16:19;99090.25;;;19.03;94.80
28306;BME280;7516;43.570;1.448;2022-11-03T13:18:47;99085.56;;;19.10;94.93
28306;BME280;7516;43.570;1.448;2022-11-03T13:21:15;99094.44;;;19.15;95.10
28306;BME280;7516;43.570;1.448;2022-11-03T13:23:43;99082.03;;;19.21;94.94
28306;BME280;7516;43.570;1.448;2022-11-03T13:26:11;99085.25;;;19.23;93.79
28306;BME280;7516;43.570;1.448;2022-11-03T13:28:38;99088.00;;;19.11;92.03
28306;BME280;7516;43.570;1.448;2022-11-03T13:31:06;99076.88;;;19.14;91.62
28306;BME280;7516;43.570;1.448;2022-11-03T13:33:35;99081.88;;;19.11;91.19
28306;BME280;7516;43.570;1.448;2022-11-03T13:36:03;99072.63;;;19.13;93.13
28306;BME280;7516;43.570;1.448;2022-11-03T13:38:31;99076.88;;;19.14;92.07